map of MWX home
MWX - Airport
Location
City:  Muan, Republic of Korea (South Korea)
Name:Muan International Airport
ICAO:RKJB
IATA:MWX

Details
Type:Airport (Aerodrome, Airfield)
Use:Public/Civil, International (customs port of entry)
Latitude:34°59'29"N (34.991389)
Longitude:126°22'58"E (126.382778)
Elevation:51 ft (16 m)
Variation:7.69°W (WMM2015 magnetic declination)
-0.07° annual change
Runways:1
Longest:9186 × 148 ft (2800 × 45 m)

Time
Time Zone:UTC+9
Local Time:

Weather
METAR:RKJB 111100Z 04005KT 6000 FEW010 SCT030 01/01 Q1026 NOSIG

Related Locations
Nearby:
Farthest:SUPE: 12370 mi / 19907 km
Punta el Este [El Jagüel Airport], MA, UY

Find:

   beyond  
but within

Other Information
Maps:
NOTAMs:
Links:
Sources:

  
  • flag of Republic of Korea (South Korea)
  

Sectional Chart

Flight Planning
at skyvector.com

Satellite Image

Google Maps Satellite view

 

Copyright © 2004-2018 Karl L. Swartz. All rights reserved.
The Great Circle Mapper name and logo are trademarks of the Great Circle Mapper.
All other trademarks mentioned herein belong to their respective owners.
Please see credits for attibutions and further copyright information.

  Follow gcmap on Facebook Follow gcmap on Twitter Follow gcmap on Google+ GCmap on LinkedIn

hCard Microformat

Geo Microformat